TNG weather

Ibn Batouta Airport
Tangier, Tanger Province, Morocco

Public forecast

Using degrees Celsius for public forecast. Weather courtesy of forecast.io.

METAR (pilot weather report)

Retrieved 2019/05/19 21:30 UTC (20 minutes ago):

GMTT 192130Z 23004KT 200V270 9999 SCT016 SCT023 18/14 Q1015 NOSIG

TAF (pilot weather forecast)

Retrieved 2019/05/19 18:00 UTC (4 hours ago):

TAF GMTT 191700Z 1918/2024 26010KT 9999 FEW016 SCT200